createdAt,value
2018-11-26T12:02:16.066Z,59252.39
2018-11-26T12:04:42.992Z,59236.98
2018-11-26T12:07:12.227Z,59268.83
2018-11-26T12:09:40.908Z,59239.04
2018-11-26T12:12:09.571Z,59222.60
2018-11-26T12:14:38.205Z,59224.65
2018-11-26T12:17:06.939Z,59282.19
2018-11-26T12:19:35.740Z,59259.59
2018-11-26T12:22:05.979Z,59222.60
2018-11-26T12:24:34.623Z,59253.42
2018-11-26T12:27:04.711Z,59245.20
2018-11-26T12:29:33.711Z,59248.29
2018-11-26T12:32:04.281Z,59231.85
2018-11-26T12:34:33.269Z,59227.74
2018-11-26T12:37:03.617Z,59245.20
2018-11-26T12:39:32.250Z,59271.91
2018-11-26T12:42:04.186Z,59224.65
2018-11-26T12:44:40.607Z,59251.37
2018-11-26T12:47:09.729Z,59248.29
2018-11-26T12:49:40.238Z,59233.90
2018-11-26T12:52:08.957Z,59244.18
2018-11-26T12:54:37.654Z,59258.56
2018-11-26T12:57:06.850Z,59261.64
2018-11-26T12:59:35.584Z,59239.04
2018-11-26T13:02:07.169Z,59206.16
2018-11-26T13:04:36.097Z,59260.61
2018-11-26T13:07:06.870Z,59245.20
2018-11-26T13:09:35.619Z,59235.96
2018-11-26T13:12:05.414Z,59254.45
2018-11-26T13:14:34.137Z,59258.56
2018-11-26T13:17:05.762Z,59253.42
2018-11-26T13:19:34.386Z,59236.98
2018-11-26T13:22:07.533Z,59270.89
2018-11-26T13:24:36.490Z,59251.37
2018-11-26T13:27:06.109Z,59249.31
2018-11-26T13:29:34.770Z,59268.83
2018-11-26T13:32:06.269Z,59230.82
2018-11-26T13:34:35.061Z,59249.31
2018-11-26T13:37:08.163Z,59266.78
2018-11-26T13:39:36.826Z,59228.76
2018-11-26T13:42:06.810Z,59255.48
2018-11-26T13:44:35.431Z,59196.91
2018-11-26T13:47:05.862Z,59236.98
2018-11-26T13:49:34.459Z,59236.98
2018-11-26T13:52:04.509Z,59247.26
2018-11-26T13:54:34.501Z,59197.94
2018-11-26T13:57:04.583Z,59282.19
2018-11-26T13:59:33.295Z,59257.53
2018-11-26T14:02:03.149Z,59216.43
2018-11-26T14:04:31.780Z,59268.83
2018-11-26T14:07:00.371Z,59245.20
2018-11-26T14:09:29.020Z,59294.52
2018-11-26T14:11:57.644Z,59263.70
2018-11-26T14:14:26.266Z,59270.89
2018-11-26T14:16:54.965Z,59252.39
2018-11-26T14:19:23.585Z,59263.70
2018-11-26T14:21:52.214Z,59245.20
2018-11-26T14:24:20.930Z,59256.50
2018-11-26T14:26:50.966Z,59298.63
2018-11-26T14:29:19.631Z,59277.05
2018-11-26T14:31:48.259Z,59284.24
2018-11-26T14:34:16.916Z,59252.39
2018-11-26T14:36:45.575Z,59280.13
2018-11-26T14:39:14.218Z,59310.96
2018-11-26T14:41:42.867Z,59259.59
2018-11-26T14:44:12.583Z,59278.08
2018-11-26T14:46:41.338Z,59310.96
2018-11-26T14:49:09.983Z,59254.45
2018-11-26T14:51:38.567Z,59301.71
2018-11-26T14:54:07.252Z,59262.67
2018-11-26T14:56:35.900Z,59275.00
2018-11-26T14:59:06.197Z,59317.12
2018-11-26T15:01:34.897Z,59280.13
2018-11-26T15:04:04.751Z,59300.68
2018-11-26T15:06:33.403Z,59276.02
2018-11-26T15:09:02.861Z,59315.07
2018-11-26T15:11:31.407Z,59294.52
2018-11-26T15:14:02.821Z,59292.46
2018-11-26T15:16:31.479Z,59268.83
2018-11-26T15:19:00.122Z,59300.68
2018-11-26T15:21:28.797Z,59289.38
2018-11-26T15:23:57.889Z,59304.79
2018-11-26T15:26:27.678Z,59311.98
2018-11-26T15:28:55.205Z,59293.49
2018-11-26T15:31:23.819Z,59311.98
2018-11-26T15:33:52.784Z,59299.65
2018-11-26T15:36:21.419Z,59316.09
2018-11-26T15:38:50.026Z,59321.23
2018-11-26T15:41:18.835Z,59301.71
2018-11-26T15:43:47.482Z,59325.34
2018-11-26T15:46:16.224Z,59331.50
2018-11-26T15:48:44.949Z,59341.78
2018-11-26T15:51:13.734Z,59272.94
2018-11-26T15:53:42.375Z,59328.42
2018-11-26T15:56:11.011Z,59296.57
2018-11-26T15:58:39.661Z,59320.20
2018-11-26T16:01:08.444Z,59334.59
2018-11-26T16:03:37.706Z,59350.00
2018-11-26T16:06:06.587Z,59307.87
2018-11-26T16:08:35.249Z,59293.49
2018-11-26T16:11:04.515Z,59328.42
2018-11-26T16:13:33.262Z,59332.53
2018-11-26T16:16:03.538Z,59338.70
2018-11-26T16:18:32.569Z,59334.59
2018-11-26T16:21:02.481Z,59329.45
2018-11-26T16:23:31.167Z,59321.23
2018-11-26T16:25:59.930Z,59303.76
2018-11-26T16:28:28.571Z,59337.67
2018-11-26T16:30:57.243Z,59330.48
2018-11-26T16:33:25.913Z,59315.07
2018-11-26T16:35:54.543Z,59328.42
2018-11-26T16:38:23.210Z,59353.08
2018-11-26T16:40:52.621Z,59363.36
2018-11-26T16:43:22.545Z,59361.30
2018-11-26T16:45:51.611Z,59324.31
2018-11-26T16:48:20.238Z,59337.67
2018-11-26T16:50:49.260Z,59333.56
2018-11-26T16:53:19.441Z,59307.87
2018-11-26T16:55:46.562Z,59368.49
2018-11-26T16:58:15.255Z,59354.11
2018-11-26T17:00:44.053Z,59352.05
2018-11-26T17:03:12.761Z,59350.00
2018-11-26T17:05:42.578Z,59326.37
2018-11-26T17:08:12.763Z,59365.41
2018-11-26T17:10:42.816Z,59351.02
2018-11-26T17:13:13.221Z,59340.75
2018-11-26T17:15:41.904Z,59319.18
2018-11-26T17:18:10.592Z,59333.56
2018-11-26T17:20:39.326Z,59340.75
2018-11-26T17:23:08.425Z,59355.13
2018-11-26T17:25:37.165Z,59341.78
2018-11-26T17:28:07.530Z,59346.91
2018-11-26T17:30:37.101Z,59331.50
2018-11-26T17:33:07.126Z,59339.72
2018-11-26T17:35:35.783Z,59372.60
2018-11-26T17:38:05.644Z,59363.36
2018-11-26T17:40:34.350Z,59337.67
2018-11-26T17:43:05.816Z,59353.08
2018-11-26T17:45:34.568Z,59401.37
2018-11-26T17:48:05.627Z,59389.04
2018-11-26T17:50:38.596Z,59352.05
2018-11-26T17:53:09.772Z,59386.98
2018-11-26T17:55:57.013Z,59339.72
2018-11-26T17:58:27.099Z,59360.27
2018-11-26T18:01:04.133Z,59344.86
2018-11-26T18:03:32.849Z,59359.24
2018-11-26T18:06:02.856Z,59329.45
2018-11-26T18:08:31.584Z,59347.94
2018-11-26T18:11:00.219Z,59339.72
2018-11-26T18:13:28.851Z,59320.20
2018-11-26T18:15:57.828Z,59336.64
2018-11-26T18:18:26.461Z,59348.97
2018-11-26T18:20:55.101Z,59288.35
2018-11-26T18:23:23.827Z,59310.96
2018-11-26T18:25:52.447Z,59358.21
2018-11-26T18:28:21.251Z,59323.29
2018-11-26T18:30:51.348Z,59317.12
2018-11-26T18:33:19.978Z,59356.16
2018-11-26T18:35:49.214Z,59289.38
2018-11-26T18:38:18.177Z,59328.42
2018-11-26T18:40:50.555Z,59323.29
2018-11-26T18:43:19.545Z,59327.39
2018-11-26T18:45:48.235Z,59380.82
2018-11-26T18:48:16.939Z,59341.78
2018-11-26T18:50:45.637Z,59325.34
2018-11-26T18:53:14.294Z,59298.63
2018-11-26T18:55:43.396Z,59306.85
2018-11-26T18:58:12.575Z,59345.89
2018-11-26T19:00:45.038Z,59322.25
2018-11-26T19:03:18.329Z,59308.90
2018-11-26T19:05:47.758Z,59347.94
2018-11-26T19:08:16.422Z,59321.23
2018-11-26T19:10:45.402Z,59310.96
2018-11-26T19:13:16.703Z,59316.09
2018-11-26T19:15:47.104Z,59318.14
2018-11-26T19:18:23.022Z,59326.37
2018-11-26T19:20:52.074Z,59314.04
2018-11-26T19:23:20.932Z,59348.97
2018-11-26T19:25:50.947Z,59325.34
2018-11-26T19:28:20.507Z,59344.86
2018-11-26T19:30:48.598Z,59320.20
2018-11-26T19:33:19.400Z,59303.76
2018-11-26T19:35:48.752Z,59303.76
2018-11-26T19:38:17.470Z,59318.14
2018-11-26T19:40:46.308Z,59301.71
2018-11-26T19:43:15.349Z,59341.78
2018-11-26T19:45:44.145Z,59316.09
2018-11-26T19:48:12.972Z,59276.02
2018-11-26T19:50:41.779Z,59311.98
2018-11-26T19:53:12.123Z,59353.08
2018-11-26T19:55:41.959Z,59316.09
2018-11-26T19:58:11.086Z,59333.56
2018-11-26T20:00:40.599Z,59329.45
2018-11-26T20:03:44.565Z,59310.96
2018-11-26T20:06:17.263Z,59356.16
2018-11-26T20:08:48.578Z,59331.50
2018-11-26T20:11:17.498Z,59340.75
2018-11-26T20:13:46.243Z,59335.61
2018-11-26T20:16:17.063Z,59318.14
2018-11-26T20:18:48.760Z,59325.34
2018-11-26T20:21:17.464Z,59336.64
2018-11-26T20:23:46.161Z,59330.48
2018-11-26T20:26:14.833Z,59333.56
2018-11-26T20:28:43.545Z,59333.56
2018-11-26T20:31:12.416Z,59296.57
2018-11-26T20:33:41.153Z,59357.19
2018-11-26T20:36:12.040Z,59328.42
2018-11-26T20:38:41.000Z,59339.72
2018-11-26T20:41:12.437Z,59327.39
2018-11-26T20:43:41.937Z,59351.02
2018-11-26T20:46:10.816Z,59338.70
2018-11-26T20:48:40.171Z,59314.04
2018-11-26T20:51:09.131Z,59358.21
2018-11-26T20:53:37.868Z,59333.56
2018-11-26T20:56:13.719Z,59339.72
2018-11-26T20:58:42.556Z,59334.59
2018-11-26T21:01:11.214Z,59340.75
2018-11-26T21:03:40.260Z,59348.97
2018-11-26T21:06:09.159Z,59352.05
2018-11-26T21:08:38.116Z,59327.39
2018-11-26T21:11:07.412Z,59324.31
2018-11-26T21:13:37.401Z,59345.89
2018-11-26T21:16:06.777Z,59324.31
2018-11-26T21:18:35.813Z,59325.34
2018-11-26T21:21:07.235Z,59333.56
2018-11-26T21:23:36.278Z,59313.01
2018-11-26T21:26:07.822Z,59326.37
2018-11-26T21:28:36.645Z,59331.50
2018-11-26T21:31:06.201Z,59273.97
2018-11-26T21:33:35.278Z,59311.98
2018-11-26T21:36:05.853Z,59333.56
2018-11-26T21:38:36.990Z,59350.00
2018-11-26T21:41:06.593Z,59323.29
2018-11-26T21:43:35.592Z,59288.35
2018-11-26T21:46:06.271Z,59321.23
2018-11-26T21:48:35.094Z,59294.52
2018-11-26T21:51:06.502Z,59310.96
2018-11-26T21:53:35.351Z,59325.34
2018-11-26T21:56:05.693Z,59321.23
2018-11-26T21:58:34.539Z,59333.56
2018-11-26T22:01:06.772Z,59340.75
2018-11-26T22:03:35.739Z,59282.19
2018-11-26T22:06:05.756Z,59315.07
2018-11-26T22:08:34.645Z,59339.72
2018-11-26T22:11:04.830Z,59292.46
2018-11-26T22:13:33.677Z,59321.23
2018-11-26T22:16:04.432Z,59320.20
2018-11-26T22:18:34.362Z,59344.86
2018-11-26T22:21:06.984Z,59340.75
2018-11-26T22:23:35.931Z,59304.79
2018-11-26T22:26:05.647Z,59288.35
2018-11-26T22:28:34.437Z,59322.25
2018-11-26T22:31:05.358Z,59325.34
2018-11-26T22:33:34.180Z,59324.31
2018-11-26T22:36:05.185Z,59308.90
2018-11-26T22:38:33.985Z,59322.25
2018-11-26T22:41:04.021Z,59314.04
2018-11-26T22:43:32.677Z,59315.07
2018-11-26T22:46:03.925Z,59285.27
2018-11-26T22:48:32.523Z,59293.49
2018-11-26T22:51:02.938Z,59290.41
2018-11-26T22:53:31.776Z,59280.13
2018-11-26T22:56:00.447Z,59313.01
2018-11-26T22:58:29.126Z,59278.08
2018-11-26T23:00:57.806Z,59318.14
2018-11-26T23:03:27.342Z,59306.85
2018-11-26T23:05:55.983Z,59308.90
2018-11-26T23:08:24.680Z,59314.04
2018-11-26T23:10:53.383Z,59301.71
2018-11-26T23:13:22.017Z,59315.07
2018-11-26T23:15:50.981Z,59282.19
2018-11-26T23:18:19.615Z,59284.24
2018-11-26T23:20:48.243Z,59288.35
2018-11-26T23:23:16.928Z,59273.97
2018-11-26T23:25:45.567Z,59288.35
2018-11-26T23:28:14.272Z,59307.87
2018-11-26T23:30:42.929Z,59288.35
2018-11-26T23:33:11.569Z,59282.19
2018-11-26T23:35:40.778Z,59283.21
2018-11-26T23:38:09.393Z,59277.05
2018-11-26T23:40:42.604Z,59294.52
2018-11-26T23:43:11.279Z,59260.61
2018-11-26T23:45:39.953Z,59292.46
2018-11-26T23:48:08.613Z,59298.63
2018-11-26T23:50:37.318Z,59271.91
2018-11-26T23:53:06.987Z,59283.21
2018-11-26T23:55:35.658Z,59273.97
2018-11-26T23:58:05.882Z,59277.05
